Time;durP1;ratioP1;P1;durP2;ratioP2;P2;SDS_P1;SDS_P2;PMS_P1;PMS_P2;Temp;Humidity;BMP_temperature;BMP_pressure;BME280_temperature;BME280_humidity;BME280_pressure;Samples;Min_cycle;Max_cycle;Signal;HPM_P1;HPM_P2
2021/10/04 00:01:20;;;;;;;13.20;8.35;;;;;;;12.43;60.75;98421.09;4952482;29;20041;-73
2021/10/04 00:03:46;;;;;;;12.60;8.82;;;;;;;12.39;61.10;98416.53;4952969;29;20166;-72
2021/10/04 00:06:11;;;;;;;12.95;8.38;;;;;;;12.33;60.99;98421.34;4953018;29;20031;-72
2021/10/04 00:08:37;;;;;;;14.48;8.52;;;;;;;12.27;61.14;98420.63;4935431;29;20050;-72
2021/10/04 00:11:03;;;;;;;11.70;8.32;;;;;;;12.23;61.23;98429.81;4953174;29;20027;-73
2021/10/04 00:13:28;;;;;;;16.23;8.40;;;;;;;12.17;61.32;98426.38;4952168;29;20498;-72
2021/10/04 00:15:54;;;;;;;14.25;8.85;;;;;;;12.14;61.77;98426.97;4952617;29;20027;-72
2021/10/04 00:18:20;;;;;;;13.02;9.00;;;;;;;12.09;61.63;98422.38;4952569;29;20143;-72
2021/10/04 00:20:45;;;;;;;13.55;9.15;;;;;;;12.05;61.34;98427.69;4952585;29;20031;-73
2021/10/04 00:23:11;;;;;;;15.55;9.70;;;;;;;12.02;61.79;98422.81;4952036;29;20459;-73
2021/10/04 00:25:36;;;;;;;14.63;9.13;;;;;;;11.99;61.53;98417.91;4935487;29;20019;-73
2021/10/04 00:28:03;;;;;;;15.57;9.35;;;;;;;11.95;62.07;98421.56;4952395;29;20035;-73
2021/10/04 00:30:29;;;;;;;15.15;10.18;;;;;;;11.88;62.19;98410.97;4952307;29;20034;-73
2021/10/04 00:32:55;;;;;;;15.50;10.00;;;;;;;11.83;62.07;98417.38;4951960;29;20043;-73
2021/10/04 00:35:23;;;;;;;19.95;10.30;;;;;;;11.77;61.76;98410.38;4952587;29;20028;-73
2021/10/04 00:37:49;;;;;;;14.50;10.10;;;;;;;11.73;62.15;98410.16;4952216;28;20085;-73
2021/10/04 00:40:18;;;;;;;15.15;9.38;;;;;;;11.69;61.83;98416.56;4952228;29;20106;-73
2021/10/04 00:42:44;;;;;;;15.90;10.20;;;;;;;11.66;62.15;98417.16;4951398;29;20126;-73
2021/10/04 00:45:10;;;;;;;13.38;9.23;;;;;;;11.62;62.88;98419.72;4951952;29;20031;-72
2021/10/04 00:47:38;;;;;;;17.30;10.32;;;;;;;11.58;63.03;98408.53;4951952;29;20027;-72
2021/10/04 00:50:06;;;;;;;15.45;9.82;;;;;;;11.55;62.71;98417.38;4951971;29;20069;-73
2021/10/04 00:52:32;;;;;;;20.08;9.30;;;;;;;11.51;62.95;98413.63;4951172;29;20114;-72
2021/10/04 00:54:57;;;;;;;16.02;9.60;;;;;;;11.46;63.02;98422.75;4951853;29;20098;-72
2021/10/04 00:57:23;;;;;;;17.02;9.80;;;;;;;11.45;62.62;98414.81;4951415;29;20023;-72
2021/10/04 00:59:48;;;;;;;16.02;10.18;;;;;;;11.41;63.55;98422.84;4951578;29;20024;-73
2021/10/04 01:02:14;;;;;;;15.60;9.45;;;;;;;11.40;62.99;98418.50;4951055;29;20043;-72
2021/10/04 01:04:41;;;;;;;17.88;10.60;;;;;;;11.39;63.42;98424.28;4951533;29;20031;-72
2021/10/04 01:07:07;;;;;;;17.35;9.98;;;;;;;11.37;63.23;98423.75;4951313;29;20035;-73
2021/10/04 01:09:33;;;;;;;16.73;9.55;;;;;;;11.35;63.76;98420.50;4951523;29;20889;-72
2021/10/04 01:12:00;;;;;;;17.02;11.00;;;;;;;11.31;63.55;98421.09;4948868;29;20062;-73
2021/10/04 01:14:26;;;;;;;19.63;12.02;;;;;;;11.28;63.77;98421.69;4951038;29;20181;-72
2021/10/04 01:16:52;;;;;;;20.88;12.15;;;;;;;11.26;63.29;98426.69;4951537;29;20118;-72
2021/10/04 01:19:18;;;;;;;21.50;11.85;;;;;;;11.24;63.48;98422.63;4915382;29;20086;-72
2021/10/04 01:21:43;;;;;;;20.75;11.77;;;;;;;11.20;64.21;98422.41;4951402;29;20578;-72
2021/10/04 01:24:13;;;;;;;20.58;11.02;;;;;;;11.20;63.58;98424.34;4950430;29;20057;-73
2021/10/04 01:26:38;;;;;;;17.37;10.93;;;;;;;11.19;63.82;98423.53;4951104;29;20030;-72
2021/10/04 01:29:04;;;;;;;21.38;11.98;;;;;;;11.20;64.34;98427.91;4951318;29;20023;-72
2021/10/04 01:31:30;;;;;;;21.60;12.30;;;;;;;11.22;64.23;98427.59;4934216;29;20070;-72
2021/10/04 01:33:56;;;;;;;21.73;11.65;;;;;;;11.24;64.04;98428.91;4951752;29;20023;-73
2021/10/04 01:36:27;;;;;;;23.98;12.50;;;;;;;11.26;64.19;98434.13;4934837;29;20031;-73
2021/10/04 01:38:56;;;;;;;19.58;11.70;;;;;;;11.28;64.55;98432.69;4951733;29;20031;-73
2021/10/04 01:41:22;;;;;;;19.50;12.00;;;;;;;11.28;64.32;98438.19;4951979;29;20039;-73
2021/10/04 01:43:49;;;;;;;20.30;11.90;;;;;;;11.30;64.76;98433.19;4951624;29;20093;-73
2021/10/04 01:46:14;;;;;;;18.55;11.98;;;;;;;11.29;64.30;98437.06;4951893;29;20031;-73
2021/10/04 01:48:40;;;;;;;21.95;11.77;;;;;;;11.29;64.90;98437.06;4951397;28;20066;-73
2021/10/04 01:51:05;;;;;;;21.55;11.73;;;;;;;11.29;64.41;98433.50;4951871;29;20035;-73
2021/10/04 01:53:31;;;;;;;16.58;10.75;;;;;;;11.29;64.79;98441.75;4951520;29;20023;-73
2021/10/04 01:55:57;;;;;;;18.23;11.30;;;;;;;11.28;64.13;98440.91;4952230;29;20498;-73
2021/10/04 01:58:22;;;;;;;20.05;11.85;;;;;;;11.25;64.96;98441.53;4949741;29;20067;-73
2021/10/04 02:00:48;;;;;;;19.60;11.20;;;;;;;11.24;64.07;98437.13;4951917;29;20097;-73
2021/10/04 02:03:14;;;;;;;18.67;12.07;;;;;;;11.22;64.30;98441.31;4951733;29;20023;-73
2021/10/04 02:05:40;;;;;;;20.88;12.00;;;;;;;11.21;64.89;98440.50;4951839;29;20566;-73
2021/10/04 02:08:05;;;;;;;19.83;11.40;;;;;;;11.17;64.75;98440.28;4951676;29;20369;-73
2021/10/04 02:10:36;;;;;;;18.95;11.70;;;;;;;11.17;64.72;98448.53;4951627;29;20023;-73
2021/10/04 02:13:05;;;;;;;17.95;11.10;;;;;;;11.16;64.25;98449.63;4951507;29;20019;-73
2021/10/04 02:15:30;;;;;;;17.30;10.82;;;;;;;11.16;64.89;98451.59;4951634;29;20154;-73
2021/10/04 02:17:57;;;;;;;18.13;11.00;;;;;;;11.13;64.85;98443.94;4951796;29;20102;-73
2021/10/04 02:20:25;;;;;;;19.10;11.38;;;;;;;11.08;64.56;98458.56;4951492;29;20027;-73
2021/10/04 02:22:51;;;;;;;16.83;11.27;;;;;;;11.05;65.42;98453.66;4951499;29;20028;-73
2021/10/04 02:25:17;;;;;;;17.25;10.85;;;;;;;11.03;65.15;98461.38;4951787;29;20024;-73
2021/10/04 02:27:44;;;;;;;22.67;10.95;;;;;;;10.98;64.34;98464.22;4952153;29;20070;-73
2021/10/04 02:30:27;;;;;;;18.42;12.18;;;;;;;10.91;64.19;98467.31;4951691;29;20043;-72
2021/10/04 02:32:53;;;;;;;18.20;10.73;;;;;;;10.84;64.78;98462.22;4951059;29;20039;-72
2021/10/04 02:35:20;;;;;;;18.08;11.32;;;;;;;10.78;64.85;98463.41;4951800;29;20038;-73
2021/10/04 02:37:46;;;;;;;21.83;11.63;;;;;;;10.74;65.00;98462.38;4951802;29;20027;-72
2021/10/04 02:40:13;;;;;;;19.60;11.65;;;;;;;10.67;65.18;98464.66;4951423;29;20019;-73
2021/10/04 02:42:40;;;;;;;23.25;12.65;;;;;;;10.60;65.29;98465.06;4951249;29;20466;-73
2021/10/04 02:45:08;;;;;;;17.80;11.82;;;;;;;10.55;65.86;98476.09;4951415;29;20063;-73
2021/10/04 02:47:35;;;;;;;20.38;12.13;;;;;;;10.52;65.39;98465.72;4951424;29;20082;-73
2021/10/04 02:50:00;;;;;;;18.60;11.85;;;;;;;10.52;65.05;98471.19;4952008;29;20031;-73
2021/10/04 02:52:25;;;;;;;21.13;12.27;;;;;;;10.46;65.29;98470.47;4951254;29;20432;-73
2021/10/04 02:54:51;;;;;;;23.08;12.65;;;;;;;10.42;65.44;98474.91;4951758;29;20019;-73
2021/10/04 02:57:16;;;;;;;22.30;14.00;;;;;;;10.37;65.61;98472.19;4951765;29;20023;-72
2021/10/04 02:59:43;;;;;;;24.52;13.30;;;;;;;10.37;65.66;98464.78;4951548;28;20067;-73
2021/10/04 03:02:10;;;;;;;20.90;13.32;;;;;;;10.36;66.25;98474.13;4954901;29;20035;-72
2021/10/04 03:04:35;;;;;;;21.90;13.32;;;;;;;10.35;66.03;98477.97;4955124;29;20038;-73
2021/10/04 03:07:01;;;;;;;24.67;13.18;;;;;;;10.32;66.38;98480.47;4955142;29;20035;-72
2021/10/04 03:09:26;;;;;;;25.17;13.80;;;;;;;10.30;66.22;98477.22;4955095;29;20108;-72
2021/10/04 03:11:52;;;;;;;23.42;13.18;;;;;;;10.28;66.08;98467.34;4955386;29;20027;-72
2021/10/04 03:14:17;;;;;;;20.17;12.35;;;;;;;10.25;65.83;98478.09;4954467;29;20403;-72
2021/10/04 03:16:43;;;;;;;21.77;13.57;;;;;;;10.22;66.07;98478.69;4955044;29;20019;-71
2021/10/04 03:19:09;;;;;;;22.25;13.52;;;;;;;10.22;66.73;98481.44;4955352;29;20402;-72
2021/10/04 03:21:34;;;;;;;22.33;13.70;;;;;;;10.20;66.43;98475.44;4955081;29;20027;-72
2021/10/04 03:23:59;;;;;;;25.80;14.68;;;;;;;10.17;66.56;98476.84;4954811;29;20027;-72
2021/10/04 03:26:25;;;;;;;24.38;14.90;;;;;;;10.18;66.57;98481.22;4955235;29;20086;-73
2021/10/04 03:28:51;;;;;;;27.95;14.40;;;;;;;10.19;66.67;98480.06;4954971;29;20054;-72
2021/10/04 03:31:16;;;;;;;23.38;14.75;;;;;;;10.21;66.64;98471.56;4954840;29;20047;-72
2021/10/04 03:33:42;;;;;;;24.92;13.85;;;;;;;10.21;66.74;98475.13;4954703;29;20023;-72
2021/10/04 03:36:07;;;;;;;24.80;13.80;;;;;;;10.23;66.91;98474.84;4954487;29;20048;-72
2021/10/04 03:38:33;;;;;;;20.35;12.82;;;;;;;10.27;67.19;98479.44;4954827;29;20453;-72
2021/10/04 03:40:58;;;;;;;22.77;13.43;;;;;;;10.29;66.07;98476.41;4954806;29;20023;-73
2021/10/04 03:43:24;;;;;;;19.30;12.80;;;;;;;10.31;66.96;98471.44;4947133;29;20035;-72
2021/10/04 03:45:50;;;;;;;20.58;12.77;;;;;;;10.33;67.33;98479.38;4953225;29;20023;-72
2021/10/04 03:48:15;;;;;;;21.67;12.48;;;;;;;10.32;67.02;98470.34;4953490;29;20373;-72
2021/10/04 03:50:40;;;;;;;21.20;12.57;;;;;;;10.34;67.07;98470.03;4953943;29;20015;-72
2021/10/04 03:53:06;;;;;;;24.55;13.15;;;;;;;10.35;66.39;98475.25;4953938;29;20383;-72
2021/10/04 03:55:32;;;;;;;23.90;12.85;;;;;;;10.39;67.17;98484.50;4953119;29;20031;-72
2021/10/04 03:57:57;;;;;;;18.90;12.07;;;;;;;10.39;67.11;98481.78;4935558;29;20019;-72
2021/10/04 04:00:25;;;;;;;20.10;11.68;;;;;;;10.40;67.28;98477.13;4953909;29;20547;-72
2021/10/04 04:02:50;;;;;;;21.20;11.50;;;;;;;10.41;66.99;98474.06;4953522;29;20060;-72
2021/10/04 04:05:17;;;;;;;17.83;11.98;;;;;;;10.45;66.94;98487.19;4954115;29;20534;-72
2021/10/04 04:07:43;;;;;;;20.33;12.35;;;;;;;10.45;67.36;98482.53;4954099;29;20062;-73
2021/10/04 04:10:10;;;;;;;21.08;12.73;;;;;;;10.46;67.36;98481.44;4953807;29;20492;-72
2021/10/04 04:12:36;;;;;;;18.13;12.52;;;;;;;10.48;67.46;98483.84;4953068;28;20049;-72
2021/10/04 04:15:03;;;;;;;19.67;12.95;;;;;;;10.49;67.32;98477.25;4953498;29;20164;-73
2021/10/04 04:17:28;;;;;;;22.08;12.57;;;;;;;10.50;67.31;98482.47;4953750;29;20118;-72
2021/10/04 04:19:54;;;;;;;23.08;12.85;;;;;;;10.50;67.12;98479.72;4953840;29;20117;-72
2021/10/04 04:22:19;;;;;;;22.45;12.82;;;;;;;10.47;67.35;98483.06;4935736;29;20043;-72
2021/10/04 04:24:45;;;;;;;26.65;16.30;;;;;;;10.47;67.34;98485.81;4953537;29;20023;-72
2021/10/04 04:27:10;;;;;;;28.33;18.42;;;;;;;10.45;66.80;98482.53;4936288;29;20028;-72
2021/10/04 04:29:37;;;;;;;23.38;14.43;;;;;;;10.44;67.38;98486.38;4953711;29;20029;-72
2021/10/04 04:32:05;;;;;;;21.13;13.10;;;;;;;10.42;67.27;98478.44;4953568;29;20909;-72
2021/10/04 04:34:31;;;;;;;25.55;13.85;;;;;;;10.41;67.26;98486.97;4953574;29;20037;-72
2021/10/04 04:36:56;;;;;;;20.85;13.70;;;;;;;10.41;67.27;98476.81;4953167;29;20027;-72
2021/10/04 04:39:22;;;;;;;23.30;15.00;;;;;;;10.42;67.06;98485.88;4953515;29;20027;-72
2021/10/04 04:41:47;;;;;;;23.30;13.45;;;;;;;10.40;67.44;98485.34;4953753;29;20500;-72
2021/10/04 04:44:13;;;;;;;22.10;13.65;;;;;;;10.37;67.97;98492.22;4952962;29;20037;-72
2021/10/04 04:46:38;;;;;;;23.55;13.60;;;;;;;10.35;67.50;98493.59;4953362;29;20031;-72
2021/10/04 04:49:04;;;;;;;31.90;15.10;;;;;;;10.32;67.48;98496.94;4953534;29;20392;-72
2021/10/04 04:51:29;;;;;;;33.45;15.10;;;;;;;10.28;67.65;98502.19;4953572;29;20043;-72
2021/10/04 04:53:55;;;;;;;28.42;14.90;;;;;;;10.23;67.87;98497.56;4952893;29;20432;-72
2021/10/04 04:56:20;;;;;;;29.85;15.38;;;;;;;10.20;66.93;98506.38;4952978;29;20019;-72
2021/10/04 04:58:46;;;;;;;31.00;15.93;;;;;;;10.14;68.18;98502.09;4953110;29;20574;-73
2021/10/04 05:01:11;;;;;;;32.38;15.52;;;;;;;10.17;67.66;98506.16;4953292;29;20492;-72
2021/10/04 05:03:36;;;;;;;26.17;14.85;;;;;;;10.16;67.94;98515.47;4952669;29;20032;-72
2021/10/04 05:06:02;;;;;;;28.67;15.43;;;;;;;10.11;67.06;98516.38;4952932;29;20039;-72
2021/10/04 05:08:28;;;;;;;31.88;15.55;;;;;;;10.10;67.53;98521.03;4952755;29;20182;-72
2021/10/04 05:10:53;;;;;;;40.38;16.75;;;;;;;10.08;67.89;98523.25;4953123;29;20078;-72
2021/10/04 05:13:19;;;;;;;35.08;15.75;;;;;;;10.06;67.95;98524.66;4952778;29;20114;-72
2021/10/04 05:15:44;;;;;;;32.88;16.52;;;;;;;10.06;67.58;98530.13;4935812;29;20434;-71
2021/10/04 05:18:10;;;;;;;35.80;16.00;;;;;;;10.03;68.12;98520.53;4952113;29;20046;-72
2021/10/04 05:20:35;;;;;;;30.75;15.75;;;;;;;10.05;68.04;98526.56;4953014;29;20024;-72
2021/10/04 05:23:01;;;;;;;30.25;16.13;;;;;;;10.08;67.75;98525.19;4951915;28;20486;-72
2021/10/04 05:25:26;;;;;;;31.65;16.88;;;;;;;10.11;68.63;98533.63;4953092;29;20416;-71
2021/10/04 05:27:52;;;;;;;34.20;16.70;;;;;;;10.15;67.69;98535.78;4953143;29;20379;-71
2021/10/04 05:30:17;;;;;;;33.63;16.42;;;;;;;10.17;67.87;98531.66;4952579;29;20070;-71
2021/10/04 05:32:43;;;;;;;35.58;16.52;;;;;;;10.22;68.42;98522.53;4952448;29;20411;-72
2021/10/04 05:35:11;;;;;;;33.80;17.92;;;;;;;10.25;68.52;98522.75;4952255;29;20227;-71
2021/10/04 05:37:36;;;;;;;32.30;17.23;;;;;;;10.31;68.03;98526.28;4950190;29;20384;-71
2021/10/04 05:40:04;;;;;;;32.65;17.73;;;;;;;10.37;68.57;98536.06;4952716;29;20019;-72
2021/10/04 05:42:32;;;;;;;32.92;17.13;;;;;;;10.43;68.21;98534.09;4952233;29;20027;-71
2021/10/04 05:45:04;;;;;;;30.52;17.63;;;;;;;10.48;68.30;98534.03;4952301;29;20031;-71
2021/10/04 05:47:30;;;;;;;31.85;17.50;;;;;;;10.56;68.45;98535.31;4952413;29;20136;-71
2021/10/04 05:49:56;;;;;;;30.90;17.08;;;;;;;10.64;68.30;98542.06;4952438;29;20127;-71
2021/10/04 05:52:21;;;;;;;26.85;15.95;;;;;;;10.70;68.86;98541.72;4951877;29;20035;-71
2021/10/04 05:54:47;;;;;;;29.75;16.77;;;;;;;10.79;68.43;98535.56;4952281;29;20079;-72
2021/10/04 05:57:12;;;;;;;30.45;16.20;;;;;;;10.89;68.36;98538.16;4952079;29;20023;-71
2021/10/04 05:59:38;;;;;;;29.63;16.48;;;;;;;10.97;68.85;98537.50;4952320;29;20024;-72
2021/10/04 06:02:04;;;;;;;31.42;18.15;;;;;;;11.08;68.88;98543.63;4951813;29;20543;-71
2021/10/04 06:04:30;;;;;;;32.97;18.80;;;;;;;11.22;68.45;98540.94;4950851;29;20057;-72
2021/10/04 06:06:55;;;;;;;37.00;21.42;;;;;;;11.37;68.54;98536.34;4951455;29;20155;-72
2021/10/04 06:09:21;;;;;;;34.72;20.42;;;;;;;11.51;68.90;98545.44;4951848;29;20126;-71
2021/10/04 06:11:46;;;;;;;33.55;19.67;;;;;;;11.65;68.48;98545.47;4951589;29;20543;-71
2021/10/04 06:14:12;;;;;;;30.70;18.27;;;;;;;11.78;69.21;98543.88;4951034;29;20042;-72
2021/10/04 06:16:37;;;;;;;30.65;18.20;;;;;;;11.93;68.79;98555.72;4942696;29;20066;-71
2021/10/04 06:19:03;;;;;;;26.42;16.98;;;;;;;12.06;69.16;98553.03;4950378;29;20023;-71
2021/10/04 06:21:29;;;;;;;26.83;15.85;;;;;;;12.18;69.21;98552.50;4950507;29;20035;-72
2021/10/04 06:23:54;;;;;;;28.42;15.98;;;;;;;12.31;68.65;98552.84;4950544;29;20464;-72
2021/10/04 06:26:20;;;;;;;30.17;18.95;;;;;;;12.41;68.63;98557.31;4950600;29;20026;-71
2021/10/04 06:28:45;;;;;;;31.98;18.67;;;;;;;12.53;68.62;98563.13;4950873;29;20514;-72
2021/10/04 06:31:11;;;;;;;31.33;18.02;;;;;;;12.59;68.48;98564.66;4951093;29;20435;-71
2021/10/04 06:33:36;;;;;;;31.90;19.95;;;;;;;12.70;68.69;98572.66;4950124;28;20038;-72
2021/10/04 06:36:02;;;;;;;34.35;19.70;;;;;;;12.81;69.02;98576.84;4936669;29;20027;-72
2021/10/04 06:38:27;;;;;;;32.80;18.58;;;;;;;12.92;68.79;98575.50;4954191;29;20106;-71
2021/10/04 06:40:53;;;;;;;35.28;18.48;;;;;;;13.02;68.88;98582.72;4954774;29;20373;-71
2021/10/04 06:43:18;;;;;;;34.55;20.23;;;;;;;13.14;68.83;98582.16;4954464;29;20039;-71
2021/10/04 06:45:44;;;;;;;34.72;18.98;;;;;;;13.25;68.67;98577.22;4948160;29;20150;-71
2021/10/04 06:48:09;;;;;;;32.17;18.83;;;;;;;13.37;68.75;98583.00;4953976;29;20395;-71
2021/10/04 06:50:35;;;;;;;35.28;19.58;;;;;;;13.48;68.82;98580.84;4954638;29;20031;-72
2021/10/04 06:53:00;;;;;;;38.25;20.15;;;;;;;13.60;68.72;98588.59;4953761;29;20542;-72
2021/10/04 06:55:26;;;;;;;34.53;19.50;;;;;;;13.71;68.52;98589.13;4947568;29;20074;-71
2021/10/04 06:57:52;;;;;;;31.20;16.77;;;;;;;13.82;68.79;98590.50;4952550;29;20509;-72
2021/10/04 07:00:20;;;;;;;37.38;19.88;;;;;;;13.93;68.36;98591.06;4953440;29;20030;-72
2021/10/04 07:02:49;;;;;;;35.08;18.75;;;;;;;14.05;68.47;98581.41;4953296;29;20583;-71
2021/10/04 07:05:16;;;;;;;29.30;16.67;;;;;;;14.18;68.27;98582.44;4954054;29;20479;-72
2021/10/04 07:07:41;;;;;;;24.77;13.75;;;;;;;14.30;67.99;98588.16;4954106;29;20035;-71
2021/10/04 07:10:08;;;;;;;18.58;10.50;;;;;;;14.43;67.93;98598.28;4954635;29;20074;-72
2021/10/04 07:12:34;;;;;;;19.05;10.57;;;;;;;14.55;68.07;98589.38;4955585;29;20546;-71
2021/10/04 07:15:00;;;;;;;19.33;10.52;;;;;;;14.68;67.77;98590.38;4956497;29;20035;-72
2021/10/04 07:17:25;;;;;;;15.35;9.00;;;;;;;14.82;68.00;98592.25;4955383;29;20163;-73
2021/10/04 07:19:51;;;;;;;14.00;8.43;;;;;;;14.96;67.72;98601.22;4954674;29;20668;-72
2021/10/04 07:22:16;;;;;;;15.90;8.90;;;;;;;15.08;67.32;98594.25;4953816;29;20031;-71
2021/10/04 07:24:42;;;;;;;14.15;8.75;;;;;;;15.20;67.09;98599.16;4954750;29;20054;-72
2021/10/04 07:27:07;;;;;;;12.63;8.05;;;;;;;15.30;67.02;98601.56;4937171;29;20042;-72
2021/10/04 07:29:33;;;;;;;16.65;8.85;;;;;;;15.40;67.28;98597.69;4953339;29;20024;-72
2021/10/04 07:32:01;;;;;;;14.13;9.30;;;;;;;15.50;66.74;98605.63;4937486;29;20023;-72
2021/10/04 07:34:28;;;;;;;13.70;8.00;;;;;;;15.59;66.97;98609.22;4954221;29;20059;-72
2021/10/04 07:36:54;;;;;;;16.58;9.52;;;;;;;15.70;66.82;98609.69;4954000;29;20542;-72
2021/10/04 07:39:19;;;;;;;34.70;15.00;;;;;;;15.81;66.83;98607.44;4954416;29;20039;-72
2021/10/04 07:41:46;;;;;;;15.50;9.23;;;;;;;15.92;66.55;98613.44;4955557;29;20031;-73
2021/10/04 07:44:12;;;;;;;14.68;8.30;;;;;;;16.01;66.40;98608.72;4948727;29;20031;-71
2021/10/04 07:46:38;;;;;;;12.48;7.80;;;;;;;16.11;65.98;98621.38;4950248;28;20027;-73
2021/10/04 07:49:03;;;;;;;13.93;8.02;;;;;;;16.19;65.78;98612.25;4954331;29;20114;-73
2021/10/04 07:51:29;;;;;;;13.75;8.80;;;;;;;16.27;65.66;98610.59;4954104;29;20031;-72
2021/10/04 07:53:54;;;;;;;17.50;8.52;;;;;;;16.35;65.31;98614.47;4954220;29;20027;-73
2021/10/04 07:56:20;;;;;;;12.20;8.32;;;;;;;16.43;65.31;98619.16;4954214;29;20636;-73
2021/10/04 07:58:46;;;;;;;15.13;8.23;;;;;;;16.49;65.24;98617.84;4948964;29;20041;-72
2021/10/04 08:01:13;;;;;;;15.02;8.98;;;;;;;16.57;65.11;98623.69;4953835;28;20117;-73
2021/10/04 08:03:39;;;;;;;13.80;8.57;;;;;;;16.62;64.63;98620.72;4952774;29;20078;-73
2021/10/04 08:06:04;;;;;;;15.20;8.23;;;;;;;16.69;64.62;98612.72;4952183;29;20015;-73
2021/10/04 08:08:31;;;;;;;16.13;9.23;;;;;;;16.77;65.04;98616.59;4952025;29;20035;-73
2021/10/04 08:10:56;;;;;;;15.93;8.85;;;;;;;16.85;64.52;98617.66;4935027;29;20117;-72
2021/10/04 08:13:22;;;;;;;14.07;8.48;;;;;;;16.93;64.33;98614.03;4951620;29;20453;-72
2021/10/04 08:15:47;;;;;;;11.38;7.22;;;;;;;17.02;64.30;98611.25;4953674;29;20023;-73
2021/10/04 08:18:13;;;;;;;11.55;7.30;;;;;;;17.08;63.65;98610.72;4954184;29;20403;-74
2021/10/04 08:20:38;;;;;;;13.48;7.60;;;;;;;17.14;64.04;98614.09;4937248;29;20464;-72
2021/10/04 08:23:04;;;;;;;9.30;6.32;;;;;;;17.21;63.30;98614.38;4947025;29;20065;-72
2021/10/04 08:25:30;;;;;;;12.38;7.43;;;;;;;17.25;63.21;98608.97;4953213;29;20042;-73
2021/10/04 08:27:55;;;;;;;10.70;6.88;;;;;;;17.31;62.34;98610.41;4953328;29;20023;-72
2021/10/04 08:30:21;;;;;;;9.82;6.93;;;;;;;17.37;62.37;98611.00;4935641;29;20035;-72
2021/10/04 08:32:47;;;;;;;8.70;6.28;;;;;;;17.45;61.96;98617.66;4953287;29;20058;-72
2021/10/04 08:35:13;;;;;;;14.50;8.30;;;;;;;17.51;61.67;98617.09;4953445;29;20046;-72
2021/10/04 08:37:39;;;;;;;10.10;6.38;;;;;;;17.57;61.53;98617.69;4951890;29;20106;-72
2021/10/04 08:40:09;;;;;;;11.05;6.45;;;;;;;17.63;61.25;98612.75;4952710;29;20138;-72
2021/10/04 08:42:35;;;;;;;10.38;6.63;;;;;;;17.68;60.75;98618.91;4934707;29;20039;-72
2021/10/04 08:45:01;;;;;;;7.63;5.85;;;;;;;17.75;60.85;98615.56;4949958;29;20431;-72
2021/10/04 08:47:27;;;;;;;11.18;6.47;;;;;;;17.80;61.01;98606.25;4951102;29;20059;-73
2021/10/04 08:49:53;;;;;;;10.35;6.60;;;;;;;17.91;60.53;98617.72;4951069;29;20483;-72
2021/10/04 08:52:20;;;;;;;9.10;5.57;;;;;;;17.95;60.69;98613.91;4950675;29;20027;-72
2021/10/04 08:54:46;;;;;;;10.15;6.00;;;;;;;18.00;60.57;98610.94;4951924;29;20074;-72
2021/10/04 08:57:12;;;;;;;10.88;6.63;;;;;;;18.04;60.59;98600.00;4951999;28;20027;-73
2021/10/04 08:59:37;;;;;;;9.20;6.18;;;;;;;18.11;60.21;98604.97;4951968;29;20102;-72
2021/10/04 09:02:23;;;;;;;10.02;5.63;;;;;;;18.18;59.81;98604.41;4952462;29;20035;-72
2021/10/04 09:05:27;;;;;;;7.72;5.78;;;;;;;18.25;60.10;98601.88;4952473;29;20031;-72
2021/10/04 09:07:53;;;;;;;8.93;6.10;;;;;;;18.29;60.01;98597.25;4951415;29;20039;-73
2021/10/04 09:10:21;;;;;;;10.52;6.20;;;;;;;18.35;59.70;98587.56;4952289;29;20567;-73
2021/10/04 09:12:55;;;;;;;8.32;5.30;;;;;;;18.41;58.96;98588.13;4935356;29;20475;-70
2021/10/04 09:15:22;;;;;;;9.20;5.97;;;;;;;18.43;58.39;98588.59;4953554;29;20042;-73
2021/10/04 09:17:49;;;;;;;8.45;5.75;;;;;;;18.47;58.09;98588.72;4952771;29;20037;-72
2021/10/04 09:20:16;;;;;;;11.45;6.40;;;;;;;18.50;58.72;98602.72;4953312;29;20028;-72
2021/10/04 09:22:41;;;;;;;10.52;5.95;;;;;;;18.57;58.57;98593.81;4949218;29;20031;-72
2021/10/04 09:25:08;;;;;;;9.10;6.50;;;;;;;18.61;58.02;98591.97;4950874;29;20400;-72
2021/10/04 09:27:35;;;;;;;9.23;6.50;;;;;;;18.65;58.40;98592.09;4952706;29;20106;-72
2021/10/04 09:30:03;;;;;;;12.02;6.47;;;;;;;18.72;57.75;98581.22;4952579;29;20031;-72
2021/10/04 09:32:34;;;;;;;10.23;6.47;;;;;;;18.79;57.97;98591.75;4951920;29;20027;-71
2021/10/04 09:35:27;;;;;;;9.77;6.55;;;;;;;18.85;57.92;98588.38;4953398;29;20031;-72
2021/10/04 09:37:58;;;;;;;8.93;6.70;;;;;;;18.91;57.65;98591.75;4951968;29;20042;-72
2021/10/04 09:40:29;;;;;;;8.15;6.07;;;;;;;18.95;57.05;98592.63;4952082;29;20476;-72
2021/10/04 09:42:55;;;;;;;11.18;6.50;;;;;;;18.96;56.96;98591.50;4952745;29;20053;-72
2021/10/04 09:45:21;;;;;;;11.85;6.95;;;;;;;18.99;56.86;98590.81;4952304;29;20487;-72
2021/10/04 09:47:49;;;;;;;12.65;6.68;;;;;;;19.02;56.99;98598.44;4953156;29;20027;-73
2021/10/04 09:50:34;;;;;;;12.32;6.60;;;;;;;19.06;56.92;98593.03;4952340;29;20031;-72
2021/10/04 09:53:04;;;;;;;13.15;6.45;;;;;;;19.13;56.30;98598.81;4952420;29;20547;-73
2021/10/04 09:55:35;;;;;;;7.95;5.88;;;;;;;19.16;56.98;98603.63;4951789;29;20052;-72
2021/10/04 09:58:04;;;;;;;10.05;6.43;;;;;;;19.21;56.34;98594.25;4953075;29;20031;-71
2021/10/04 10:00:35;;;;;;;10.07;6.53;;;;;;;19.25;56.24;98594.34;4953394;29;20110;-69
2021/10/04 10:03:02;;;;;;;12.30;6.65;;;;;;;19.30;56.00;98597.72;4953294;29;20043;-69
2021/10/04 10:05:31;;;;;;;13.52;6.82;;;;;;;19.38;56.61;98584.84;4952980;29;20042;-69
2021/10/04 10:07:56;;;;;;;24.45;13.85;;;;;;;19.48;56.56;98592.69;4951960;29;20074;-70
2021/10/04 10:10:23;;;;;;;15.25;10.50;;;;;;;19.58;55.92;98601.69;4952446;28;20055;-70
2021/10/04 10:12:49;;;;;;;11.70;6.50;;;;;;;19.61;55.68;98596.22;4957395;29;20122;-71
2021/10/04 10:15:26;;;;;;;11.00;6.80;;;;;;;19.66;55.52;98594.38;4951025;29;20066;-69
2021/10/04 10:18:01;;;;;;;10.80;6.07;;;;;;;19.70;55.60;98601.63;4942232;29;20035;-68
2021/10/04 10:20:27;;;;;;;10.98;6.47;;;;;;;19.75;55.36;98600.59;4950099;29;20086;-69
2021/10/04 10:22:53;;;;;;;9.80;6.45;;;;;;;19.83;55.74;98599.59;4950654;29;20114;-68
2021/10/04 10:25:54;;;;;;;11.88;6.85;;;;;;;19.97;55.34;98603.97;4951376;29;20023;-69
2021/10/04 10:28:32;;;;;;;11.38;6.60;;;;;;;20.01;54.73;98599.31;4854301;29;20554;-69
2021/10/04 10:30:58;;;;;;;11.57;6.28;;;;;;;20.07;55.01;98595.13;4937389;29;20126;-69
2021/10/04 10:33:46;;;;;;;12.75;6.80;;;;;;;20.17;55.56;98602.97;4949989;29;20077;-69
2021/10/04 10:36:15;;;;;;;13.82;9.13;;;;;;;20.29;54.57;98595.69;4950227;29;20035;-69
2021/10/04 10:38:59;;;;;;;16.52;10.55;;;;;;;20.41;54.78;98597.56;4950462;29;20039;-70
2021/10/04 10:41:24;;;;;;;16.27;8.18;;;;;;;20.58;54.20;98588.06;4932114;29;20463;-68
2021/10/04 10:44:09;;;;;;;23.60;10.80;;;;;;;20.71;54.30;98597.13;4948103;29;20055;-69
2021/10/04 10:46:55;;;;;;;10.43;6.75;;;;;;;20.84;53.97;98593.06;4930846;29;20373;-68
2021/10/04 10:49:57;;;;;;;12.18;8.00;;;;;;;20.80;53.49;98603.31;4948642;29;20065;-69
2021/10/04 10:52:26;;;;;;;11.38;7.10;;;;;;;20.80;53.04;98597.75;4947036;29;20102;-69
2021/10/04 10:54:52;;;;;;;10.25;6.82;;;;;;;20.75;53.24;98593.25;4948803;29;20031;-70
2021/10/04 10:57:23;;;;;;;9.52;6.28;;;;;;;20.73;53.61;98589.22;4951002;29;20078;-69
2021/10/04 11:00:16;;;;;;;15.85;10.70;;;;;;;20.74;53.69;98591.63;4933574;29;20031;-69
2021/10/04 11:02:48;;;;;;;9.48;6.22;;;;;;;20.77;52.15;98593.72;4950645;29;20047;-69
2021/10/04 11:05:38;;;;;;;12.35;8.00;;;;;;;20.74;52.61;98594.41;4950906;29;20031;-69
2021/10/04 11:08:05;;;;;;;42.58;35.03;;;;;;;20.75;52.52;98595.25;4950759;29;20119;-69
2021/10/04 11:10:31;;;;;;;28.55;22.55;;;;;;;20.75;52.68;98598.81;4934854;29;20031;-70
2021/10/04 11:13:11;;;;;;;15.30;11.88;;;;;;;20.84;53.13;98592.28;4952164;29;20033;-70
2021/10/04 11:15:41;;;;;;;9.13;6.57;;;;;;;20.87;52.89;98591.56;4952535;29;20032;-69
2021/10/04 11:18:09;;;;;;;10.95;6.82;;;;;;;20.89;52.30;98592.00;4952684;29;20054;-70
2021/10/04 11:20:36;;;;;;;8.10;6.25;;;;;;;20.90;51.98;98596.41;4952568;28;20035;-69
2021/10/04 11:23:03;;;;;;;9.85;7.30;;;;;;;20.89;52.64;98598.38;4955032;29;20468;-69